createdAt,value
2023-08-15T00:04:38.258Z,20.53
2023-08-15T00:09:41.468Z,20.48
2023-08-15T00:14:44.573Z,20.42
2023-08-15T00:19:47.689Z,20.36
2023-08-15T00:24:50.795Z,20.32
2023-08-15T00:29:53.807Z,20.27
2023-08-15T00:34:56.810Z,20.21
2023-08-15T00:40:01.164Z,20.16
2023-08-15T00:45:04.465Z,20.19
2023-08-15T00:50:10.537Z,20.24
2023-08-15T00:55:13.694Z,20.23
2023-08-15T01:00:17.292Z,20.21
2023-08-15T01:05:21.617Z,20.18
2023-08-15T01:10:24.816Z,20.15
2023-08-15T01:15:33.280Z,20.11
2023-08-15T01:20:38.502Z,20.05
2023-08-15T01:25:43.981Z,20.00
2023-08-15T01:30:52.105Z,19.95
2023-08-15T01:36:04.257Z,19.90
2023-08-15T01:41:13.073Z,19.88
2023-08-15T01:46:16.487Z,19.86
2023-08-15T01:51:19.913Z,19.81
2023-08-15T01:56:22.979Z,19.77
2023-08-15T02:01:26.468Z,19.71
2023-08-15T02:06:29.641Z,19.65
2023-08-15T02:11:32.740Z,19.63
2023-08-15T02:16:35.855Z,19.64
2023-08-15T02:21:39.189Z,19.64
2023-08-15T02:26:42.481Z,19.66
2023-08-15T02:31:48.665Z,19.68
2023-08-15T02:36:51.774Z,19.71
2023-08-15T02:41:54.810Z,19.73
2023-08-15T02:46:58.145Z,19.74
2023-08-15T02:52:01.219Z,19.76
2023-08-15T02:57:04.426Z,19.78
2023-08-15T03:02:07.403Z,19.83
2023-08-15T03:07:10.736Z,19.86
2023-08-15T03:12:13.947Z,19.86
2023-08-15T03:17:20.603Z,19.86
2023-08-15T03:22:24.160Z,19.87
2023-08-15T03:27:27.168Z,19.88
2023-08-15T03:32:30.196Z,19.90
2023-08-15T03:37:33.182Z,19.94
2023-08-15T03:42:36.187Z,19.99
2023-08-15T03:47:39.222Z,20.07
2023-08-15T03:52:42.408Z,20.15
2023-08-15T03:57:45.510Z,20.23
2023-08-15T04:02:48.802Z,20.29
2023-08-15T04:07:51.938Z,20.34
2023-08-15T04:12:54.944Z,20.42
2023-08-15T04:17:58.123Z,20.49
2023-08-15T04:23:01.265Z,20.53
2023-08-15T04:28:05.383Z,20.59
2023-08-15T04:33:08.649Z,20.67
2023-08-15T04:38:12.131Z,20.76
2023-08-15T04:43:15.234Z,20.88
2023-08-15T04:48:18.341Z,21.01
2023-08-15T04:53:21.341Z,21.13
2023-08-15T04:58:24.357Z,21.30
2023-08-15T05:03:27.367Z,22.00
2023-08-15T05:08:30.575Z,23.98
2023-08-15T05:13:33.686Z,25.17
2023-08-15T05:18:36.810Z,25.42
2023-08-15T05:23:39.915Z,25.33
2023-08-15T05:28:44.883Z,25.40
2023-08-15T05:33:49.194Z,25.38
2023-08-15T05:38:52.411Z,26.09
2023-08-15T05:43:55.416Z,27.13
2023-08-15T05:48:58.518Z,27.09
2023-08-15T05:54:01.735Z,27.31
2023-08-15T05:59:04.954Z,27.84
2023-08-15T06:04:08.113Z,28.61
2023-08-15T06:09:11.268Z,29.51
2023-08-15T06:14:14.474Z,30.14
2023-08-15T06:19:18.944Z,30.73
2023-08-15T06:24:22.083Z,31.47
2023-08-15T06:29:26.731Z,33.87
2023-08-15T06:34:30.038Z,35.65
2023-08-15T06:39:33.100Z,37.38
2023-08-15T06:44:36.205Z,38.47
2023-08-15T06:49:39.392Z,39.17
2023-08-15T06:54:42.740Z,39.61
2023-08-15T06:59:45.883Z,39.87
2023-08-15T07:04:50.429Z,40.14
2023-08-15T07:09:53.794Z,40.04
2023-08-15T07:14:57.214Z,40.08
2023-08-15T07:20:00.218Z,40.30
2023-08-15T07:25:03.429Z,40.59
2023-08-15T07:30:07.934Z,40.74
2023-08-15T07:35:11.078Z,40.66
2023-08-15T07:40:21.458Z,40.60
2023-08-15T07:45:24.408Z,40.61
2023-08-15T07:50:29.566Z,40.74
2023-08-15T07:55:34.000Z,40.89
2023-08-15T08:00:38.202Z,41.00
2023-08-15T08:05:41.469Z,41.23
2023-08-15T08:10:44.626Z,41.75
2023-08-15T08:15:54.216Z,42.21
2023-08-15T08:21:07.443Z,42.57
2023-08-15T08:26:13.925Z,42.57
2023-08-15T08:31:19.493Z,42.03
2023-08-15T08:36:23.408Z,41.86
2023-08-15T08:41:27.237Z,41.77
2023-08-15T08:46:37.410Z,42.12
2023-08-15T08:51:42.158Z,42.08
2023-08-15T08:56:48.549Z,40.16
2023-08-15T09:01:53.498Z,38.09
2023-08-15T09:06:56.719Z,36.58
2023-08-15T09:11:59.919Z,35.65
2023-08-15T09:17:03.164Z,35.02
2023-08-15T09:22:06.345Z,34.65
2023-08-15T09:27:10.372Z,34.37
2023-08-15T09:32:13.506Z,34.16
2023-08-15T09:37:16.913Z,34.04
2023-08-15T09:42:21.915Z,33.96
2023-08-15T09:47:27.039Z,33.91
2023-08-15T09:52:30.629Z,34.01
2023-08-15T09:57:33.841Z,34.05
2023-08-15T10:02:47.135Z,34.11
2023-08-15T10:07:52.681Z,34.22
2023-08-15T10:12:56.560Z,34.20
2023-08-15T10:18:01.000Z,34.36
2023-08-15T10:23:09.163Z,34.40
2023-08-15T10:28:15.738Z,34.50
2023-08-15T10:33:31.048Z,34.58
2023-08-15T10:38:41.947Z,34.67
2023-08-15T10:43:55.992Z,34.70
2023-08-15T10:49:12.282Z,34.75
2023-08-15T10:54:18.390Z,34.82
2023-08-15T10:59:22.012Z,34.86
2023-08-15T11:04:31.371Z,34.92
2023-08-15T11:09:38.670Z,34.92
2023-08-15T11:14:42.404Z,34.92
2023-08-15T11:19:47.456Z,34.92
2023-08-15T11:24:55.166Z,34.84
2023-08-15T11:29:59.421Z,34.84
2023-08-15T11:35:04.568Z,34.87
2023-08-15T11:40:08.598Z,34.93
2023-08-15T11:45:13.194Z,34.96
2023-08-15T11:50:22.326Z,35.00
2023-08-15T11:55:34.730Z,35.05
2023-08-15T12:00:41.207Z,35.12
2023-08-15T12:05:48.415Z,34.95
2023-08-15T12:10:54.837Z,34.61
2023-08-15T12:15:58.346Z,34.47
2023-08-15T12:21:02.942Z,34.75
2023-08-15T12:26:07.511Z,34.97
2023-08-15T12:31:10.648Z,35.03
2023-08-15T12:36:16.148Z,35.22
2023-08-15T12:41:20.721Z,35.37
2023-08-15T12:46:28.344Z,35.68
2023-08-15T12:51:32.689Z,35.90
2023-08-15T12:56:36.296Z,35.97
2023-08-15T13:01:41.135Z,36.02
2023-08-15T13:06:46.098Z,36.06
2023-08-15T13:11:49.613Z,36.03
2023-08-15T13:16:52.880Z,35.93
2023-08-15T13:21:56.554Z,35.91
2023-08-15T13:27:00.175Z,35.87
2023-08-15T13:32:03.393Z,35.76
2023-08-15T13:37:07.210Z,35.72
2023-08-15T13:42:16.973Z,35.70
2023-08-15T13:47:27.668Z,35.70
2023-08-15T13:52:31.179Z,35.72
2023-08-15T13:57:35.005Z,35.64
2023-08-15T14:02:38.878Z,35.62
2023-08-15T14:07:42.248Z,35.59
2023-08-15T14:12:47.610Z,35.47
2023-08-15T14:17:59.506Z,35.41
2023-08-15T14:23:05.296Z,35.38
2023-08-15T14:28:08.613Z,35.28
2023-08-15T14:33:13.398Z,35.22
2023-08-15T14:38:17.697Z,35.29
2023-08-15T14:43:23.671Z,35.34
2023-08-15T14:48:27.705Z,35.30
2023-08-15T14:53:32.241Z,35.21
2023-08-15T14:58:37.335Z,35.13
2023-08-15T15:03:43.329Z,35.12
2023-08-15T15:08:52.642Z,35.00
2023-08-15T15:14:01.478Z,34.85
2023-08-15T15:19:05.239Z,34.74
2023-08-15T15:24:09.032Z,34.68
2023-08-15T15:29:14.931Z,34.61
2023-08-15T15:34:18.485Z,34.55
2023-08-15T15:39:21.737Z,34.41
2023-08-15T15:44:31.212Z,34.27
2023-08-15T15:49:34.510Z,34.14
2023-08-15T15:54:38.228Z,34.01
2023-08-15T15:59:41.443Z,33.91
2023-08-15T16:04:48.655Z,33.82
2023-08-15T16:09:51.959Z,33.73
2023-08-15T16:14:55.070Z,33.62
2023-08-15T16:19:58.172Z,33.52
2023-08-15T16:25:01.806Z,33.43
2023-08-15T16:30:15.471Z,33.36
2023-08-15T16:35:21.221Z,33.27
2023-08-15T16:40:24.437Z,33.15
2023-08-15T16:45:27.557Z,33.04
2023-08-15T16:50:30.764Z,32.92
2023-08-15T16:55:34.904Z,32.79
2023-08-15T17:00:38.542Z,32.61
2023-08-15T17:05:46.227Z,32.44
2023-08-15T17:10:50.058Z,32.25
2023-08-15T17:15:53.167Z,32.04
2023-08-15T17:20:56.391Z,31.80
2023-08-15T17:25:59.788Z,31.56
2023-08-15T17:31:03.051Z,31.30
2023-08-15T17:36:06.742Z,31.05
2023-08-15T17:41:10.035Z,30.80
2023-08-15T17:46:14.604Z,30.54
2023-08-15T17:51:20.470Z,30.28
2023-08-15T17:56:23.824Z,30.02
2023-08-15T18:01:28.971Z,29.76
2023-08-15T18:06:33.338Z,29.49
2023-08-15T18:11:36.791Z,29.23
2023-08-15T18:16:40.627Z,28.95
2023-08-15T18:21:44.546Z,28.71
2023-08-15T18:26:48.104Z,28.49
2023-08-15T18:31:51.428Z,28.29
2023-08-15T18:36:54.702Z,28.11
2023-08-15T18:41:57.917Z,27.93
2023-08-15T18:47:03.655Z,27.76
2023-08-15T18:52:07.094Z,27.59
2023-08-15T18:57:10.417Z,27.41
2023-08-15T19:02:13.614Z,27.24
2023-08-15T19:07:19.272Z,27.08
2023-08-15T19:12:23.508Z,26.92
2023-08-15T19:17:27.371Z,26.78
2023-08-15T19:22:30.974Z,26.65
2023-08-15T19:27:34.485Z,26.52
2023-08-15T19:32:37.753Z,26.37
2023-08-15T19:37:41.130Z,26.21
2023-08-15T19:42:47.512Z,26.07
2023-08-15T19:47:50.700Z,25.96
2023-08-15T19:52:54.434Z,25.86
2023-08-15T19:57:57.560Z,25.79
2023-08-15T20:03:01.610Z,25.73
2023-08-15T20:08:06.430Z,25.70
2023-08-15T20:13:09.747Z,25.65
2023-08-15T20:18:14.746Z,25.61
2023-08-15T20:23:18.566Z,25.53
2023-08-15T20:28:22.441Z,25.43
2023-08-15T20:33:26.476Z,25.29
2023-08-15T20:38:32.550Z,25.07
2023-08-15T20:43:35.984Z,24.85
2023-08-15T20:48:42.252Z,24.66
2023-08-15T20:53:48.432Z,24.50
2023-08-15T20:58:51.855Z,24.36
2023-08-15T21:03:55.776Z,24.20
2023-08-15T21:08:59.618Z,24.03
2023-08-15T21:14:05.476Z,23.90
2023-08-15T21:19:11.155Z,23.84
2023-08-15T21:24:16.310Z,23.77
2023-08-15T21:29:24.021Z,23.65
2023-08-15T21:34:28.360Z,23.56
2023-08-15T21:39:31.777Z,23.46
2023-08-15T21:44:35.000Z,23.40
2023-08-15T21:49:53.669Z,23.37
2023-08-15T21:55:00.875Z,23.29
2023-08-15T22:00:06.464Z,23.19
2023-08-15T22:05:11.829Z,23.06
2023-08-15T22:10:15.114Z,22.93
2023-08-15T22:15:19.911Z,22.83
2023-08-15T22:20:23.176Z,22.72
2023-08-15T22:25:26.486Z,22.57
2023-08-15T22:30:29.906Z,22.43
2023-08-15T22:35:43.437Z,22.30
2023-08-15T22:40:47.075Z,22.21
2023-08-15T22:45:50.320Z,22.14
2023-08-15T22:50:53.501Z,22.08
2023-08-15T22:56:01.572Z,22.02
2023-08-15T23:01:04.877Z,21.95
2023-08-15T23:06:08.081Z,21.92
2023-08-15T23:11:11.363Z,21.90
2023-08-15T23:16:14.491Z,21.88
2023-08-15T23:21:17.683Z,21.85
2023-08-15T23:26:20.797Z,21.80
2023-08-15T23:31:36.677Z,21.68
2023-08-15T23:36:40.039Z,21.54
2023-08-15T23:41:43.706Z,21.43
2023-08-15T23:46:48.895Z,21.37
2023-08-15T23:51:52.658Z,21.30
2023-08-15T23:56:55.833Z,21.20
